sensor_id;sensor_type;location;lat;lon;timestamp;P1;durP1;ratioP1;P2;durP2;ratioP2
25687;SDS011;17407;51.120;3.702;2023-07-31T00:00:24;20.17;;;8.25;;
25687;SDS011;17407;51.120;3.702;2023-07-31T00:02:50;24.30;;;8.80;;
25687;SDS011;17407;51.120;3.702;2023-07-31T00:05:17;31.27;;;9.65;;
25687;SDS011;17407;51.120;3.702;2023-07-31T00:07:42;23.33;;;8.63;;
25687;SDS011;17407;51.120;3.702;2023-07-31T00:10:08;32.47;;;9.45;;
25687;SDS011;17407;51.120;3.702;2023-07-31T00:12:34;29.55;;;9.38;;
25687;SDS011;17407;51.120;3.702;2023-07-31T00:15:00;28.73;;;10.00;;
25687;SDS011;17407;51.120;3.702;2023-07-31T00:17:26;25.45;;;8.88;;
25687;SDS011;17407;51.120;3.702;2023-07-31T00:19:51;27.00;;;8.38;;
25687;SDS011;17407;51.120;3.702;2023-07-31T00:22:17;24.88;;;9.07;;
25687;SDS011;17407;51.120;3.702;2023-07-31T00:24:42;28.00;;;9.32;;
25687;SDS011;17407;51.120;3.702;2023-07-31T00:27:08;26.50;;;9.07;;
25687;SDS011;17407;51.120;3.702;2023-07-31T00:29:34;26.88;;;8.98;;
25687;SDS011;17407;51.120;3.702;2023-07-31T00:31:59;20.80;;;7.70;;
25687;SDS011;17407;51.120;3.702;2023-07-31T00:34:25;29.52;;;9.65;;
25687;SDS011;17407;51.120;3.702;2023-07-31T00:36:51;30.70;;;9.35;;
25687;SDS011;17407;51.120;3.702;2023-07-31T00:39:16;29.30;;;9.30;;
25687;SDS011;17407;51.120;3.702;2023-07-31T00:41:42;31.52;;;8.35;;
25687;SDS011;17407;51.120;3.702;2023-07-31T00:44:08;27.00;;;8.85;;
25687;SDS011;17407;51.120;3.702;2023-07-31T00:46:33;23.30;;;9.40;;
25687;SDS011;17407;51.120;3.702;2023-07-31T00:48:59;27.75;;;10.02;;
25687;SDS011;17407;51.120;3.702;2023-07-31T00:51:25;23.17;;;8.40;;
25687;SDS011;17407;51.120;3.702;2023-07-31T00:53:50;27.65;;;8.77;;
25687;SDS011;17407;51.120;3.702;2023-07-31T00:56:19;25.23;;;9.15;;
25687;SDS011;17407;51.120;3.702;2023-07-31T00:58:44;29.02;;;9.80;;
25687;SDS011;17407;51.120;3.702;2023-07-31T01:01:10;23.92;;;9.25;;
25687;SDS011;17407;51.120;3.702;2023-07-31T01:03:36;21.50;;;8.85;;
25687;SDS011;17407;51.120;3.702;2023-07-31T01:11:17;27.27;;;9.10;;
25687;SDS011;17407;51.120;3.702;2023-07-31T01:13:50;19.15;;;8.20;;
25687;SDS011;17407;51.120;3.702;2023-07-31T01:16:16;21.27;;;8.68;;
25687;SDS011;17407;51.120;3.702;2023-07-31T01:18:42;27.20;;;9.07;;
25687;SDS011;17407;51.120;3.702;2023-07-31T01:27:06;21.83;;;7.90;;
25687;SDS011;17407;51.120;3.702;2023-07-31T01:29:42;20.17;;;7.63;;
25687;SDS011;17407;51.120;3.702;2023-07-31T01:32:11;20.13;;;7.90;;
25687;SDS011;17407;51.120;3.702;2023-07-31T01:34:38;24.95;;;8.35;;
25687;SDS011;17407;51.120;3.702;2023-07-31T01:37:05;27.42;;;8.40;;
25687;SDS011;17407;51.120;3.702;2023-07-31T01:39:31;18.27;;;7.68;;
25687;SDS011;17407;51.120;3.702;2023-07-31T01:41:56;22.60;;;7.82;;
25687;SDS011;17407;51.120;3.702;2023-07-31T01:44:22;23.90;;;7.88;;
25687;SDS011;17407;51.120;3.702;2023-07-31T01:46:48;26.45;;;8.02;;
25687;SDS011;17407;51.120;3.702;2023-07-31T01:49:13;20.85;;;8.35;;
25687;SDS011;17407;51.120;3.702;2023-07-31T01:51:39;21.45;;;7.60;;
25687;SDS011;17407;51.120;3.702;2023-07-31T01:54:04;20.45;;;8.57;;
25687;SDS011;17407;51.120;3.702;2023-07-31T01:56:30;27.25;;;8.15;;
25687;SDS011;17407;51.120;3.702;2023-07-31T01:58:56;23.42;;;7.57;;
25687;SDS011;17407;51.120;3.702;2023-07-31T02:01:21;26.85;;;8.95;;
25687;SDS011;17407;51.120;3.702;2023-07-31T02:03:47;21.38;;;8.52;;
25687;SDS011;17407;51.120;3.702;2023-07-31T02:06:13;18.63;;;7.50;;
25687;SDS011;17407;51.120;3.702;2023-07-31T02:08:38;23.08;;;8.25;;
25687;SDS011;17407;51.120;3.702;2023-07-31T02:11:04;19.52;;;7.38;;
25687;SDS011;17407;51.120;3.702;2023-07-31T02:13:29;25.00;;;8.52;;
25687;SDS011;17407;51.120;3.702;2023-07-31T02:15:55;35.40;;;8.32;;
25687;SDS011;17407;51.120;3.702;2023-07-31T02:18:21;22.65;;;7.68;;
25687;SDS011;17407;51.120;3.702;2023-07-31T02:20:50;27.85;;;7.80;;
25687;SDS011;17407;51.120;3.702;2023-07-31T02:23:17;16.75;;;6.38;;
25687;SDS011;17407;51.120;3.702;2023-07-31T02:25:45;18.65;;;6.70;;
25687;SDS011;17407;51.120;3.702;2023-07-31T02:28:11;21.30;;;7.32;;
25687;SDS011;17407;51.120;3.702;2023-07-31T02:30:37;21.27;;;7.10;;
25687;SDS011;17407;51.120;3.702;2023-07-31T02:33:03;22.35;;;7.45;;
25687;SDS011;17407;51.120;3.702;2023-07-31T02:35:29;20.90;;;7.18;;
25687;SDS011;17407;51.120;3.702;2023-07-31T02:37:55;22.92;;;8.50;;
25687;SDS011;17407;51.120;3.702;2023-07-31T02:40:21;19.60;;;7.05;;
25687;SDS011;17407;51.120;3.702;2023-07-31T02:42:47;21.98;;;7.93;;
25687;SDS011;17407;51.120;3.702;2023-07-31T02:45:12;21.40;;;6.78;;
25687;SDS011;17407;51.120;3.702;2023-07-31T02:47:38;16.00;;;6.60;;
25687;SDS011;17407;51.120;3.702;2023-07-31T02:50:04;18.50;;;7.38;;
25687;SDS011;17407;51.120;3.702;2023-07-31T02:52:30;21.42;;;7.45;;
25687;SDS011;17407;51.120;3.702;2023-07-31T02:54:56;20.20;;;7.22;;
25687;SDS011;17407;51.120;3.702;2023-07-31T02:57:22;24.92;;;8.25;;
25687;SDS011;17407;51.120;3.702;2023-07-31T02:59:48;16.88;;;7.50;;
25687;SDS011;17407;51.120;3.702;2023-07-31T03:02:13;23.05;;;8.80;;
25687;SDS011;17407;51.120;3.702;2023-07-31T03:04:39;19.60;;;7.47;;
25687;SDS011;17407;51.120;3.702;2023-07-31T03:07:05;23.00;;;7.50;;
25687;SDS011;17407;51.120;3.702;2023-07-31T03:09:30;21.08;;;7.93;;
25687;SDS011;17407;51.120;3.702;2023-07-31T03:11:56;23.73;;;7.80;;
25687;SDS011;17407;51.120;3.702;2023-07-31T03:14:22;28.65;;;7.82;;
25687;SDS011;17407;51.120;3.702;2023-07-31T03:16:47;24.25;;;8.07;;
25687;SDS011;17407;51.120;3.702;2023-07-31T03:19:14;19.35;;;8.10;;
25687;SDS011;17407;51.120;3.702;2023-07-31T03:21:39;25.85;;;7.93;;
25687;SDS011;17407;51.120;3.702;2023-07-31T03:24:05;24.88;;;7.72;;
25687;SDS011;17407;51.120;3.702;2023-07-31T03:26:31;19.50;;;8.65;;
25687;SDS011;17407;51.120;3.702;2023-07-31T03:28:57;19.15;;;8.00;;
25687;SDS011;17407;51.120;3.702;2023-07-31T03:31:23;28.05;;;9.10;;
25687;SDS011;17407;51.120;3.702;2023-07-31T03:33:48;24.73;;;8.10;;
25687;SDS011;17407;51.120;3.702;2023-07-31T03:36:14;29.45;;;8.18;;
25687;SDS011;17407;51.120;3.702;2023-07-31T03:38:40;31.50;;;8.60;;
25687;SDS011;17407;51.120;3.702;2023-07-31T03:41:05;26.20;;;9.18;;
25687;SDS011;17407;51.120;3.702;2023-07-31T03:43:31;20.20;;;8.52;;
25687;SDS011;17407;51.120;3.702;2023-07-31T03:45:59;21.40;;;8.10;;
25687;SDS011;17407;51.120;3.702;2023-07-31T03:48:27;26.85;;;9.38;;
25687;SDS011;17407;51.120;3.702;2023-07-31T03:50:53;27.92;;;8.77;;
25687;SDS011;17407;51.120;3.702;2023-07-31T03:53:19;23.60;;;8.50;;
25687;SDS011;17407;51.120;3.702;2023-07-31T03:55:45;17.90;;;8.68;;
25687;SDS011;17407;51.120;3.702;2023-07-31T03:58:11;29.23;;;9.13;;
25687;SDS011;17407;51.120;3.702;2023-07-31T04:00:36;23.58;;;9.38;;
25687;SDS011;17407;51.120;3.702;2023-07-31T04:03:02;28.25;;;9.38;;
25687;SDS011;17407;51.120;3.702;2023-07-31T04:05:29;24.95;;;9.48;;
25687;SDS011;17407;51.120;3.702;2023-07-31T04:07:56;24.70;;;8.82;;
25687;SDS011;17407;51.120;3.702;2023-07-31T04:10:22;29.42;;;10.77;;
25687;SDS011;17407;51.120;3.702;2023-07-31T04:12:48;27.23;;;10.10;;
25687;SDS011;17407;51.120;3.702;2023-07-31T04:15:13;30.33;;;10.00;;
25687;SDS011;17407;51.120;3.702;2023-07-31T04:17:39;28.58;;;10.27;;
25687;SDS011;17407;51.120;3.702;2023-07-31T04:20:05;21.33;;;9.77;;
25687;SDS011;17407;51.120;3.702;2023-07-31T04:22:31;20.85;;;9.93;;
25687;SDS011;17407;51.120;3.702;2023-07-31T04:24:56;29.65;;;10.68;;
25687;SDS011;17407;51.120;3.702;2023-07-31T04:27:22;30.02;;;10.75;;
25687;SDS011;17407;51.120;3.702;2023-07-31T04:29:47;26.38;;;9.73;;
25687;SDS011;17407;51.120;3.702;2023-07-31T04:32:13;23.02;;;10.07;;
25687;SDS011;17407;51.120;3.702;2023-07-31T04:34:41;27.48;;;9.40;;
25687;SDS011;17407;51.120;3.702;2023-07-31T04:37:07;29.67;;;9.95;;
25687;SDS011;17407;51.120;3.702;2023-07-31T04:39:33;23.98;;;9.52;;
25687;SDS011;17407;51.120;3.702;2023-07-31T04:41:58;26.95;;;10.15;;
25687;SDS011;17407;51.120;3.702;2023-07-31T04:44:24;20.90;;;9.20;;
25687;SDS011;17407;51.120;3.702;2023-07-31T04:46:50;22.33;;;8.65;;
25687;SDS011;17407;51.120;3.702;2023-07-31T04:49:15;22.05;;;8.68;;
25687;SDS011;17407;51.120;3.702;2023-07-31T04:51:41;21.50;;;9.10;;
25687;SDS011;17407;51.120;3.702;2023-07-31T04:54:07;24.90;;;9.77;;
25687;SDS011;17407;51.120;3.702;2023-07-31T04:56:32;22.95;;;8.98;;
25687;SDS011;17407;51.120;3.702;2023-07-31T04:58:58;24.30;;;8.57;;
25687;SDS011;17407;51.120;3.702;2023-07-31T05:01:24;24.05;;;9.35;;
25687;SDS011;17407;51.120;3.702;2023-07-31T05:03:49;26.90;;;8.15;;
25687;SDS011;17407;51.120;3.702;2023-07-31T05:06:15;21.38;;;9.20;;
25687;SDS011;17407;51.120;3.702;2023-07-31T05:08:41;17.25;;;8.00;;
25687;SDS011;17407;51.120;3.702;2023-07-31T05:11:06;19.58;;;7.95;;
25687;SDS011;17407;51.120;3.702;2023-07-31T05:13:32;20.75;;;8.73;;
25687;SDS011;17407;51.120;3.702;2023-07-31T05:15:58;13.70;;;7.25;;
25687;SDS011;17407;51.120;3.702;2023-07-31T05:18:23;17.63;;;7.07;;
25687;SDS011;17407;51.120;3.702;2023-07-31T05:20:49;20.67;;;6.75;;
25687;SDS011;17407;51.120;3.702;2023-07-31T05:23:14;16.48;;;7.43;;
25687;SDS011;17407;51.120;3.702;2023-07-31T05:25:40;19.95;;;8.00;;
25687;SDS011;17407;51.120;3.702;2023-07-31T05:28:05;16.88;;;7.43;;
25687;SDS011;17407;51.120;3.702;2023-07-31T05:30:31;19.40;;;7.47;;
25687;SDS011;17407;51.120;3.702;2023-07-31T05:32:57;17.13;;;7.15;;
25687;SDS011;17407;51.120;3.702;2023-07-31T05:35:22;12.63;;;7.75;;
25687;SDS011;17407;51.120;3.702;2023-07-31T05:37:48;16.00;;;7.38;;
25687;SDS011;17407;51.120;3.702;2023-07-31T05:40:14;19.23;;;8.57;;
25687;SDS011;17407;51.120;3.702;2023-07-31T05:42:40;15.73;;;7.38;;
25687;SDS011;17407;51.120;3.702;2023-07-31T05:45:06;19.58;;;7.43;;
25687;SDS011;17407;51.120;3.702;2023-07-31T05:47:32;13.48;;;7.88;;
25687;SDS011;17407;51.120;3.702;2023-07-31T05:49:58;18.02;;;7.35;;
25687;SDS011;17407;51.120;3.702;2023-07-31T05:52:24;18.30;;;7.78;;
25687;SDS011;17407;51.120;3.702;2023-07-31T05:54:49;17.15;;;7.45;;
25687;SDS011;17407;51.120;3.702;2023-07-31T05:57:15;15.07;;;8.57;;
25687;SDS011;17407;51.120;3.702;2023-07-31T05:59:41;15.48;;;7.65;;
25687;SDS011;17407;51.120;3.702;2023-07-31T06:02:07;13.80;;;7.65;;
25687;SDS011;17407;51.120;3.702;2023-07-31T06:04:32;16.65;;;7.88;;
25687;SDS011;17407;51.120;3.702;2023-07-31T06:06:58;13.43;;;7.97;;
25687;SDS011;17407;51.120;3.702;2023-07-31T06:09:23;15.63;;;8.05;;
25687;SDS011;17407;51.120;3.702;2023-07-31T06:11:50;18.05;;;7.32;;
25687;SDS011;17407;51.120;3.702;2023-07-31T06:14:16;18.55;;;8.45;;
25687;SDS011;17407;51.120;3.702;2023-07-31T06:16:42;16.10;;;7.55;;
25687;SDS011;17407;51.120;3.702;2023-07-31T06:19:09;11.82;;;6.93;;
25687;SDS011;17407;51.120;3.702;2023-07-31T06:21:34;18.20;;;6.80;;
25687;SDS011;17407;51.120;3.702;2023-07-31T06:24:02;19.55;;;8.48;;
25687;SDS011;17407;51.120;3.702;2023-07-31T06:26:28;18.50;;;7.45;;
25687;SDS011;17407;51.120;3.702;2023-07-31T06:28:54;16.60;;;7.93;;
25687;SDS011;17407;51.120;3.702;2023-07-31T06:31:20;15.95;;;8.32;;
25687;SDS011;17407;51.120;3.702;2023-07-31T06:33:48;19.42;;;7.88;;
25687;SDS011;17407;51.120;3.702;2023-07-31T06:36:14;16.63;;;7.50;;
25687;SDS011;17407;51.120;3.702;2023-07-31T06:38:40;15.98;;;7.38;;
25687;SDS011;17407;51.120;3.702;2023-07-31T06:41:05;13.30;;;7.30;;
25687;SDS011;17407;51.120;3.702;2023-07-31T06:43:31;16.88;;;6.65;;
25687;SDS011;17407;51.120;3.702;2023-07-31T06:45:57;18.70;;;7.13;;
25687;SDS011;17407;51.120;3.702;2023-07-31T06:48:22;17.13;;;6.75;;
25687;SDS011;17407;51.120;3.702;2023-07-31T06:50:48;16.30;;;7.28;;
25687;SDS011;17407;51.120;3.702;2023-07-31T06:53:13;16.23;;;6.32;;
25687;SDS011;17407;51.120;3.702;2023-07-31T06:55:39;14.05;;;6.50;;
25687;SDS011;17407;51.120;3.702;2023-07-31T06:58:05;12.98;;;6.47;;
25687;SDS011;17407;51.120;3.702;2023-07-31T07:00:30;16.45;;;6.63;;
25687;SDS011;17407;51.120;3.702;2023-07-31T07:02:57;12.70;;;6.72;;
25687;SDS011;17407;51.120;3.702;2023-07-31T07:05:22;15.43;;;6.72;;
25687;SDS011;17407;51.120;3.702;2023-07-31T07:07:49;12.55;;;6.10;;
25687;SDS011;17407;51.120;3.702;2023-07-31T07:10:16;14.20;;;6.53;;
25687;SDS011;17407;51.120;3.702;2023-07-31T07:12:42;12.70;;;6.45;;
25687;SDS011;17407;51.120;3.702;2023-07-31T07:15:07;14.00;;;6.05;;
25687;SDS011;17407;51.120;3.702;2023-07-31T07:17:33;17.90;;;5.95;;
25687;SDS011;17407;51.120;3.702;2023-07-31T07:19:59;12.57;;;5.13;;
25687;SDS011;17407;51.120;3.702;2023-07-31T07:22:26;11.60;;;6.32;;
25687;SDS011;17407;51.120;3.702;2023-07-31T07:24:52;11.65;;;5.63;;
25687;SDS011;17407;51.120;3.702;2023-07-31T07:27:18;12.02;;;5.72;;
25687;SDS011;17407;51.120;3.702;2023-07-31T07:29:45;10.70;;;5.32;;
25687;SDS011;17407;51.120;3.702;2023-07-31T07:32:11;9.40;;;5.70;;
25687;SDS011;17407;51.120;3.702;2023-07-31T07:34:37;10.38;;;5.40;;
25687;SDS011;17407;51.120;3.702;2023-07-31T07:37:02;10.02;;;5.10;;
25687;SDS011;17407;51.120;3.702;2023-07-31T07:39:28;10.00;;;4.80;;
25687;SDS011;17407;51.120;3.702;2023-07-31T07:41:54;9.55;;;4.82;;
25687;SDS011;17407;51.120;3.702;2023-07-31T07:44:19;12.85;;;5.15;;
25687;SDS011;17407;51.120;3.702;2023-07-31T07:46:45;9.75;;;4.88;;
25687;SDS011;17407;51.120;3.702;2023-07-31T07:49:11;9.07;;;5.00;;
25687;SDS011;17407;51.120;3.702;2023-07-31T07:51:36;9.25;;;5.05;;
25687;SDS011;17407;51.120;3.702;2023-07-31T07:54:02;9.05;;;4.95;;
25687;SDS011;17407;51.120;3.702;2023-07-31T07:56:28;9.43;;;4.97;;
25687;SDS011;17407;51.120;3.702;2023-07-31T07:58:54;9.98;;;5.20;;
25687;SDS011;17407;51.120;3.702;2023-07-31T08:01:19;6.45;;;4.63;;
25687;SDS011;17407;51.120;3.702;2023-07-31T08:03:46;13.15;;;5.03;;
25687;SDS011;17407;51.120;3.702;2023-07-31T08:06:12;7.72;;;4.40;;
25687;SDS011;17407;51.120;3.702;2023-07-31T08:08:38;7.20;;;4.85;;
25687;SDS011;17407;51.120;3.702;2023-07-31T08:11:04;8.90;;;4.57;;
25687;SDS011;17407;51.120;3.702;2023-07-31T08:13:30;8.82;;;4.30;;
25687;SDS011;17407;51.120;3.702;2023-07-31T08:15:55;9.90;;;4.38;;
25687;SDS011;17407;51.120;3.702;2023-07-31T08:18:21;8.52;;;3.80;;
25687;SDS011;17407;51.120;3.702;2023-07-31T08:20:47;6.82;;;4.30;;
25687;SDS011;17407;51.120;3.702;2023-07-31T08:23:12;6.43;;;3.78;;
25687;SDS011;17407;51.120;3.702;2023-07-31T08:25:38;8.05;;;3.80;;
25687;SDS011;17407;51.120;3.702;2023-07-31T08:28:04;6.15;;;3.63;;
25687;SDS011;17407;51.120;3.702;2023-07-31T08:30:30;8.85;;;3.70;;
25687;SDS011;17407;51.120;3.702;2023-07-31T08:32:56;4.78;;;3.67;;
25687;SDS011;17407;51.120;3.702;2023-07-31T08:35:22;3.65;;;3.30;;
25687;SDS011;17407;51.120;3.702;2023-07-31T08:37:49;5.15;;;3.15;;
25687;SDS011;17407;51.120;3.702;2023-07-31T08:40:15;8.00;;;4.30;;
25687;SDS011;17407;51.120;3.702;2023-07-31T08:42:47;5.78;;;3.10;;
25687;SDS011;17407;51.120;3.702;2023-07-31T08:45:14;8.07;;;3.58;;
25687;SDS011;17407;51.120;3.702;2023-07-31T08:47:45;5.97;;;3.10;;
25687;SDS011;17407;51.120;3.702;2023-07-31T08:50:16;6.97;;;3.30;;
25687;SDS011;17407;51.120;3.702;2023-07-31T08:52:43;8.00;;;3.35;;
25687;SDS011;17407;51.120;3.702;2023-07-31T08:55:10;6.63;;;3.63;;
25687;SDS011;17407;51.120;3.702;2023-07-31T08:57:37;4.50;;;2.70;;
25687;SDS011;17407;51.120;3.702;2023-07-31T09:00:04;4.90;;;2.90;;
25687;SDS011;17407;51.120;3.702;2023-07-31T09:03:14;4.88;;;3.40;;
25687;SDS011;17407;51.120;3.702;2023-07-31T09:05:33;7.13;;;3.60;;
25687;SDS011;17407;51.120;3.702;2023-07-31T09:08:01;3.67;;;3.35;;
25687;SDS011;17407;51.120;3.702;2023-07-31T09:10:29;6.22;;;3.50;;
25687;SDS011;17407;51.120;3.702;2023-07-31T09:12:55;3.70;;;3.33;;
25687;SDS011;17407;51.120;3.702;2023-07-31T09:15:21;4.03;;;3.55;;
25687;SDS011;17407;51.120;3.702;2023-07-31T09:17:48;6.25;;;3.58;;
25687;SDS011;17407;51.120;3.702;2023-07-31T09:20:27;4.50;;;3.50;;
25687;SDS011;17407;51.120;3.702;2023-07-31T09:22:53;6.60;;;3.95;;
25687;SDS011;17407;51.120;3.702;2023-07-31T09:25:21;6.00;;;4.10;;
25687;SDS011;17407;51.120;3.702;2023-07-31T09:30:13;6.75;;;4.32;;
25687;SDS011;17407;51.120;3.702;2023-07-31T09:32:40;7.47;;;3.92;;
25687;SDS011;17407;51.120;3.702;2023-07-31T09:35:22;6.75;;;4.10;;
25687;SDS011;17407;51.120;3.702;2023-07-31T09:37:51;6.22;;;4.38;;
25687;SDS011;17407;51.120;3.702;2023-07-31T09:40:30;8.00;;;4.32;;
25687;SDS011;17407;51.120;3.702;2023-07-31T09:43:01;8.38;;;5.22;;
25687;SDS011;17407;51.120;3.702;2023-07-31T09:45:33;8.30;;;4.85;;
25687;SDS011;17407;51.120;3.702;2023-07-31T09:48:01;7.68;;;4.88;;
25687;SDS011;17407;51.120;3.702;2023-07-31T09:50:28;7.13;;;4.75;;
25687;SDS011;17407;51.120;3.702;2023-07-31T09:52:54;9.00;;;4.40;;
25687;SDS011;17407;51.120;3.702;2023-07-31T09:55:20;7.97;;;5.03;;
25687;SDS011;17407;51.120;3.702;2023-07-31T09:57:46;9.27;;;5.03;;
25687;SDS011;17407;51.120;3.702;2023-07-31T10:00:14;8.15;;;5.75;;
25687;SDS011;17407;51.120;3.702;2023-07-31T10:02:41;9.93;;;6.15;;
25687;SDS011;17407;51.120;3.702;2023-07-31T10:05:12;10.02;;;5.88;;
25687;SDS011;17407;51.120;3.702;2023-07-31T10:07:40;8.95;;;5.63;;
25687;SDS011;17407;51.120;3.702;2023-07-31T10:10:19;7.40;;;5.18;;
25687;SDS011;17407;51.120;3.702;2023-07-31T10:12:46;10.68;;;5.90;;
25687;SDS011;17407;51.120;3.702;2023-07-31T10:15:14;7.93;;;5.00;;
25687;SDS011;17407;51.120;3.702;2023-07-31T10:17:40;7.20;;;5.55;;
25687;SDS011;17407;51.120;3.702;2023-07-31T10:20:06;6.57;;;4.93;;
25687;SDS011;17407;51.120;3.702;2023-07-31T10:22:33;10.77;;;5.13;;
25687;SDS011;17407;51.120;3.702;2023-07-31T10:24:59;6.22;;;4.55;;
25687;SDS011;17407;51.120;3.702;2023-07-31T10:27:26;10.07;;;5.10;;
25687;SDS011;17407;51.120;3.702;2023-07-31T10:29:52;7.40;;;4.82;;
25687;SDS011;17407;51.120;3.702;2023-07-31T10:32:23;7.75;;;4.50;;
25687;SDS011;17407;51.120;3.702;2023-07-31T10:34:50;10.38;;;4.85;;
25687;SDS011;17407;51.120;3.702;2023-07-31T10:39:54;7.25;;;4.65;;
25687;SDS011;17407;51.120;3.702;2023-07-31T10:42:20;9.07;;;5.22;;
25687;SDS011;17407;51.120;3.702;2023-07-31T10:45:01;8.32;;;4.93;;
25687;SDS011;17407;51.120;3.702;2023-07-31T10:47:28;10.20;;;4.93;;
25687;SDS011;17407;51.120;3.702;2023-07-31T10:50:10;11.10;;;5.68;;
25687;SDS011;17407;51.120;3.702;2023-07-31T10:52:47;11.63;;;5.60;;
25687;SDS011;17407;51.120;3.702;2023-07-31T10:55:59;9.88;;;5.40;;
25687;SDS011;17407;51.120;3.702;2023-07-31T10:58:08;8.35;;;5.38;;
25687;SDS011;17407;51.120;3.702;2023-07-31T11:00:41;9.43;;;5.07;;
25687;SDS011;17407;51.120;3.702;2023-07-31T11:03:09;8.27;;;5.38;;
25687;SDS011;17407;51.120;3.702;2023-07-31T11:10:38;8.10;;;5.63;;
25687;SDS011;17407;51.120;3.702;2023-07-31T11:13:04;7.25;;;4.75;;
25687;SDS011;17407;51.120;3.702;2023-07-31T11:15:30;7.68;;;4.80;;
25687;SDS011;17407;51.120;3.702;2023-07-31T11:17:56;12.95;;;5.70;;
25687;SDS011;17407;51.120;3.702;2023-07-31T11:20:26;9.73;;;5.10;;
25687;SDS011;17407;51.120;3.702;2023-07-31T11:22:52;7.35;;;4.82;;
25687;SDS011;17407;51.120;3.702;2023-07-31T11:25:18;8.73;;;5.13;;
25687;SDS011;17407;51.120;3.702;2023-07-31T11:27:45;10.40;;;5.88;;
25687;SDS011;17407;51.120;3.702;2023-07-31T11:30:10;7.28;;;5.10;;
25687;SDS011;17407;51.120;3.702;2023-07-31T11:32:37;9.90;;;4.82;;
25687;SDS011;17407;51.120;3.702;2023-07-31T11:35:03;7.63;;;4.68;;
25687;SDS011;17407;51.120;3.702;2023-07-31T11:37:43;13.35;;;5.20;;
25687;SDS011;17407;51.120;3.702;2023-07-31T11:40:10;5.93;;;4.22;;
25687;SDS011;17407;51.120;3.702;2023-07-31T11:42:36;8.13;;;4.22;;
25687;SDS011;17407;51.120;3.702;2023-07-31T11:45:03;7.22;;;4.72;;
25687;SDS011;17407;51.120;3.702;2023-07-31T11:47:29;6.90;;;4.28;;
25687;SDS011;17407;51.120;3.702;2023-07-31T11:49:59;9.57;;;4.95;;
25687;SDS011;17407;51.120;3.702;2023-07-31T11:52:25;6.57;;;4.53;;
25687;SDS011;17407;51.120;3.702;2023-07-31T11:54:52;8.18;;;4.55;;
25687;SDS011;17407;51.120;3.702;2023-07-31T11:57:18;5.90;;;4.55;;
25687;SDS011;17407;51.120;3.702;2023-07-31T11:59:45;7.38;;;4.68;;
25687;SDS011;17407;51.120;3.702;2023-07-31T12:02:11;7.85;;;4.78;;
25687;SDS011;17407;51.120;3.702;2023-07-31T12:04:37;15.48;;;5.15;;
25687;SDS011;17407;51.120;3.702;2023-07-31T12:07:03;8.98;;;4.60;;
25687;SDS011;17407;51.120;3.702;2023-07-31T12:09:29;9.15;;;4.63;;
25687;SDS011;17407;51.120;3.702;2023-07-31T12:11:55;11.65;;;4.60;;
25687;SDS011;17407;51.120;3.702;2023-07-31T12:14:21;10.10;;;5.15;;
25687;SDS011;17407;51.120;3.702;2023-07-31T12:16:56;12.07;;;5.13;;
25687;SDS011;17407;51.120;3.702;2023-07-31T12:19:25;11.53;;;5.20;;
25687;SDS011;17407;51.120;3.702;2023-07-31T12:21:55;8.20;;;5.35;;
25687;SDS011;17407;51.120;3.702;2023-07-31T12:24:25;8.90;;;5.32;;
25687;SDS011;17407;51.120;3.702;2023-07-31T12:26:51;10.88;;;6.15;;
25687;SDS011;17407;51.120;3.702;2023-07-31T12:29:17;11.40;;;7.25;;
25687;SDS011;17407;51.120;3.702;2023-07-31T12:31:43;9.48;;;6.63;;
25687;SDS011;17407;51.120;3.702;2023-07-31T12:34:16;10.40;;;7.13;;
25687;SDS011;17407;51.120;3.702;2023-07-31T12:36:43;12.63;;;7.57;;
25687;SDS011;17407;51.120;3.702;2023-07-31T12:39:09;12.82;;;7.82;;
25687;SDS011;17407;51.120;3.702;2023-07-31T12:41:35;17.05;;;8.80;;
25687;SDS011;17407;51.120;3.702;2023-07-31T12:44:01;13.52;;;8.82;;
25687;SDS011;17407;51.120;3.702;2023-07-31T12:46:28;22.20;;;9.55;;
25687;SDS011;17407;51.120;3.702;2023-07-31T12:48:53;12.82;;;8.68;;
25687;SDS011;17407;51.120;3.702;2023-07-31T12:51:19;11.07;;;8.50;;
25687;SDS011;17407;51.120;3.702;2023-07-31T12:53:46;12.93;;;8.82;;
25687;SDS011;17407;51.120;3.702;2023-07-31T12:56:11;13.82;;;9.25;;
25687;SDS011;17407;51.120;3.702;2023-07-31T12:58:37;15.30;;;8.95;;
25687;SDS011;17407;51.120;3.702;2023-07-31T13:01:02;15.43;;;9.27;;
25687;SDS011;17407;51.120;3.702;2023-07-31T13:03:28;12.02;;;7.88;;
25687;SDS011;17407;51.120;3.702;2023-07-31T13:05:54;11.15;;;7.00;;
25687;SDS011;17407;51.120;3.702;2023-07-31T13:08:20;14.68;;;7.88;;
25687;SDS011;17407;51.120;3.702;2023-07-31T13:10:46;12.80;;;6.57;;
25687;SDS011;17407;51.120;3.702;2023-07-31T13:13:11;8.50;;;6.28;;
25687;SDS011;17407;51.120;3.702;2023-07-31T13:15:37;10.15;;;5.55;;
25687;SDS011;17407;51.120;3.702;2023-07-31T13:18:03;12.43;;;5.55;;
25687;SDS011;17407;51.120;3.702;2023-07-31T13:20:28;11.20;;;5.03;;
25687;SDS011;17407;51.120;3.702;2023-07-31T13:22:54;6.90;;;5.18;;
25687;SDS011;17407;51.120;3.702;2023-07-31T13:25:20;9.68;;;5.03;;
25687;SDS011;17407;51.120;3.702;2023-07-31T13:27:45;7.90;;;5.18;;
25687;SDS011;17407;51.120;3.702;2023-07-31T13:30:11;6.28;;;5.22;;
25687;SDS011;17407;51.120;3.702;2023-07-31T13:32:37;8.32;;;4.80;;
25687;SDS011;17407;51.120;3.702;2023-07-31T13:35:05;9.27;;;4.70;;
25687;SDS011;17407;51.120;3.702;2023-07-31T13:37:32;5.90;;;3.83;;
25687;SDS011;17407;51.120;3.702;2023-07-31T13:39:58;7.90;;;3.90;;
25687;SDS011;17407;51.120;3.702;2023-07-31T13:42:24;6.38;;;3.65;;
25687;SDS011;17407;51.120;3.702;2023-07-31T13:44:49;5.60;;;3.47;;
25687;SDS011;17407;51.120;3.702;2023-07-31T13:47:15;3.45;;;3.13;;
25687;SDS011;17407;51.120;3.702;2023-07-31T13:49:40;4.68;;;3.50;;
25687;SDS011;17407;51.120;3.702;2023-07-31T13:52:08;4.85;;;3.55;;
25687;SDS011;17407;51.120;3.702;2023-07-31T13:54:34;3.30;;;2.67;;
25687;SDS011;17407;51.120;3.702;2023-07-31T13:56:59;3.92;;;3.28;;
25687;SDS011;17407;51.120;3.702;2023-07-31T13:59:25;3.38;;;3.00;;
25687;SDS011;17407;51.120;3.702;2023-07-31T14:01:51;5.35;;;3.42;;
25687;SDS011;17407;51.120;3.702;2023-07-31T14:04:17;6.68;;;3.55;;
25687;SDS011;17407;51.120;3.702;2023-07-31T14:06:43;5.47;;;3.63;;
25687;SDS011;17407;51.120;3.702;2023-07-31T14:09:09;5.68;;;3.97;;
25687;SDS011;17407;51.120;3.702;2023-07-31T14:11:35;8.32;;;4.47;;
25687;SDS011;17407;51.120;3.702;2023-07-31T14:14:00;9.80;;;4.65;;
25687;SDS011;17407;51.120;3.702;2023-07-31T14:16:29;8.13;;;4.70;;
25687;SDS011;17407;51.120;3.702;2023-07-31T14:18:55;6.30;;;4.38;;
25687;SDS011;17407;51.120;3.702;2023-07-31T14:21:20;8.38;;;5.00;;
25687;SDS011;17407;51.120;3.702;2023-07-31T14:23:46;10.30;;;4.82;;
25687;SDS011;17407;51.120;3.702;2023-07-31T14:26:12;7.70;;;4.35;;
25687;SDS011;17407;51.120;3.702;2023-07-31T14:28:37;7.35;;;4.63;;
25687;SDS011;17407;51.120;3.702;2023-07-31T14:31:03;6.88;;;4.38;;
25687;SDS011;17407;51.120;3.702;2023-07-31T14:33:29;7.63;;;4.63;;
25687;SDS011;17407;51.120;3.702;2023-07-31T14:35:55;7.75;;;4.57;;
25687;SDS011;17407;51.120;3.702;2023-07-31T14:38:21;7.18;;;4.57;;
25687;SDS011;17407;51.120;3.702;2023-07-31T14:40:46;7.15;;;4.28;;
25687;SDS011;17407;51.120;3.702;2023-07-31T14:43:12;7.47;;;3.60;;
25687;SDS011;17407;51.120;3.702;2023-07-31T14:45:38;5.60;;;4.05;;
25687;SDS011;17407;51.120;3.702;2023-07-31T14:48:04;9.00;;;3.90;;
25687;SDS011;17407;51.120;3.702;2023-07-31T14:50:29;7.43;;;4.18;;
25687;SDS011;17407;51.120;3.702;2023-07-31T14:52:55;5.90;;;3.70;;
25687;SDS011;17407;51.120;3.702;2023-07-31T14:55:21;9.15;;;4.10;;